Time;durP1;ratioP1;P1;durP2;ratioP2;P2;SDS_P1;SDS_P2;PMS_P1;PMS_P2;Temp;Humidity;BMP_temperature;BMP_pressure;BME280_temperature;BME280_humidity;BME280_pressure;Samples;Min_cycle;Max_cycle;Signal;HPM_P1;HPM_P2
2024/04/18 00:01:13;;;;;;;;;10.00;9.25;;;;;-143.90;100.00;75647.75;4940410;26;100057;-73
2024/04/18 00:03:40;;;;;;;;;16.00;11.33;;;;;-143.90;100.00;75643.63;4879782;26;101689;-73
2024/04/18 00:06:07;;;;;;;;;24.33;22.67;;;;;-143.90;100.00;75647.75;4990792;26;98212;-73
2024/04/18 00:08:34;;;;;;;;;17.67;16.33;;;;;-143.90;100.00;75643.63;5290100;26;98457;-73
2024/04/18 00:11:01;;;;;;;;;16.67;12.00;;;;;-143.90;100.00;75645.69;5123657;26;97987;-73
2024/04/18 00:13:27;;;;;;;;;10.67;10.00;;;;;-143.90;100.00;75639.47;5244003;26;99774;-72
2024/04/18 00:15:54;;;;;;;;;11.33;9.33;;;;;-143.90;100.00;75639.47;5225700;26;97958;-73
2024/04/18 00:18:21;;;;;;;;;11.00;9.00;;;;;-143.90;100.00;75643.63;4946986;26;98989;-74
2024/04/18 00:20:48;;;;;;;;;9.75;7.50;;;;;-143.90;100.00;75635.34;5043256;26;100169;-74
2024/04/18 00:23:15;;;;;;;;;11.50;8.75;;;;;-143.90;100.00;75635.34;5211412;26;99751;-74
2024/04/18 00:25:42;;;;;;;;;14.50;12.75;;;;;-143.90;100.00;75639.47;5239305;26;98424;-73
2024/04/18 00:28:08;;;;;;;;;13.00;8.75;;;;;-143.90;100.00;75629.13;5222388;26;98748;-73
2024/04/18 00:30:35;;;;;;;;;19.00;15.50;;;;;-143.90;100.00;75629.13;5250973;26;97759;-73
2024/04/18 00:33:02;;;;;;;;;14.00;10.00;;;;;-143.90;100.00;75627.06;5152789;26;99917;-73
2024/04/18 00:35:29;;;;;;;;;14.00;9.67;;;;;-143.90;100.00;75618.81;5225719;26;103676;-73
2024/04/18 00:37:56;;;;;;;;;9.00;8.00;;;;;-143.90;100.00;75612.59;5161654;26;98993;-71
2024/04/18 00:40:23;;;;;;;;;13.00;9.00;;;;;-143.90;100.00;75604.34;5154839;26;98290;-73
2024/04/18 00:42:50;;;;;;;;;16.00;14.67;;;;;-143.90;100.00;75606.41;5215228;26;99786;-73
2024/04/18 00:45:19;;;;;;;;;8.00;8.00;;;;;-143.90;100.00;75606.41;5189336;25;100904;-73
2024/04/18 00:47:47;;;;;;;;;18.00;15.33;;;;;-143.90;100.00;75610.53;5108498;26;97978;-74
2024/04/18 00:50:16;;;;;;;;;15.33;13.33;;;;;-143.90;100.00;75616.72;5088672;26;98473;-74
2024/04/18 00:52:45;;;;;;;;;20.33;14.00;;;;;-143.90;100.00;75618.81;4912662;26;99857;-73
2024/04/18 00:55:12;;;;;;;;;15.33;12.67;;;;;-143.90;100.00;75622.94;4689452;26;98934;-74
2024/04/18 00:57:40;;;;;;;;;14.67;13.67;;;;;-143.90;100.00;75622.94;5264206;26;97681;-73
2024/04/18 01:00:08;;;;;;;;;16.75;13.50;;;;;-143.90;100.00;75625.00;5272449;26;98344;-74
2024/04/18 01:02:35;;;;;;;;;14.67;14.00;;;;;-143.90;100.00;75622.94;5262484;26;99806;-74
2024/04/18 01:05:02;;;;;;;;;15.50;7.75;;;;;-143.90;100.00;75625.00;5268827;26;98174;-74
2024/04/18 01:07:29;;;;;;;;;9.67;7.33;;;;;-143.90;100.00;75627.06;5053157;26;98141;-74
2024/04/18 01:09:56;;;;;;;;;9.50;9.25;;;;;-143.90;100.00;75633.28;5301432;26;97861;-74
2024/04/18 01:12:23;;;;;;;;;10.00;9.00;;;;;-143.90;100.00;75635.34;5269187;26;99902;-74
2024/04/18 01:14:49;;;;;;;;;13.00;10.00;;;;;-143.90;100.00;75647.75;5264395;26;98186;-74
2024/04/18 01:17:16;;;;;;;;;11.00;9.67;;;;;-143.90;100.00;75656.03;5273640;26;97893;-74
2024/04/18 01:19:43;;;;;;;;;16.67;16.00;;;;;-143.90;100.00;75656.03;5269500;26;98176;-73
2024/04/18 01:22:10;;;;;;;;;22.00;16.67;;;;;-143.90;100.00;75666.34;5180146;26;99790;-74
2024/04/18 01:24:36;;;;;;;;;25.00;21.67;;;;;-143.90;100.00;75664.28;5207097;26;97989;-74
2024/04/18 01:27:04;;;;;;;;;16.00;12.33;;;;;-143.90;100.00;75676.69;5117017;26;98210;-73
2024/04/18 01:29:31;;;;;;;;;15.67;15.00;;;;;-143.90;100.00;75674.63;5264327;26;99288;-74
2024/04/18 01:31:57;;;;;;;;;19.67;14.67;;;;;-143.90;100.00;75678.75;4856826;26;101352;-74
2024/04/18 01:34:24;;;;;;;;;16.67;14.00;;;;;-143.90;100.00;75684.97;5102102;26;100892;-73
2024/04/18 01:36:51;;;;;;;;;23.67;18.33;;;;;-143.90;100.00;75687.03;5122324;26;97802;-74
2024/04/18 01:39:18;;;;;;;;;25.00;17.33;;;;;-143.90;100.00;75691.16;4962314;26;100240;-73
2024/04/18 01:41:45;;;;;;;;;19.00;16.33;;;;;-143.90;100.00;75699.44;4971118;26;99736;-73
2024/04/18 01:44:12;;;;;;;;;25.00;20.00;;;;;-143.90;100.00;75705.66;5257822;26;98745;-74
2024/04/18 01:46:38;;;;;;;;;17.67;15.33;;;;;-143.90;100.00;75718.06;5140363;26;100358;-74
2024/04/18 01:49:05;;;;;;;;;16.00;16.00;;;;;-143.90;100.00;75726.31;5231211;25;99098;-73
2024/04/18 01:51:32;;;;;;;;;13.33;10.67;;;;;-143.90;100.00;75730.47;5137081;26;99792;-74
2024/04/18 01:53:59;;;;;;;;;17.67;15.67;;;;;-143.90;100.00;75734.59;5076740;26;98883;-73
2024/04/18 01:56:26;;;;;;;;;20.33;19.33;;;;;-143.90;100.00;75740.78;5222838;26;97960;-73
2024/04/18 01:58:52;;;;;;;;;17.33;16.00;;;;;-143.90;100.00;75738.72;5260358;26;98132;-73
2024/04/18 02:01:23;;;;;;;;;47.00;39.33;;;;;-143.90;100.00;75749.06;5003284;26;99691;-73
2024/04/18 02:03:50;;;;;;;;;48.00;41.00;;;;;-143.90;100.00;75747.00;5062952;26;98814;-73
2024/04/18 02:06:17;;;;;;;;;45.67;36.00;;;;;-143.90;100.00;75759.41;5172900;26;98312;-73
2024/04/18 02:08:44;;;;;;;;;26.67;25.00;;;;;-143.90;100.00;75763.53;5031291;26;97886;-72
2024/04/18 02:11:11;;;;;;;;;39.67;28.33;;;;;-143.90;100.00;75765.59;5127771;26;99751;-73
2024/04/18 02:13:38;;;;;;;;;27.67;27.00;;;;;-143.90;100.00;75769.75;5136863;26;100024;-73
2024/04/18 02:16:05;;;;;;;;;33.33;26.67;;;;;-143.90;100.00;75775.94;4972596;26;99798;-74
2024/04/18 02:18:32;;;;;;;;;18.00;14.67;;;;;-143.90;100.00;75775.94;5134153;26;98131;-73
2024/04/18 02:20:59;;;;;;;;;27.67;24.33;;;;;-143.90;100.00;75786.28;5305770;26;99750;-73
2024/04/18 02:23:26;;;;;;;;;20.33;17.33;;;;;-143.90;100.00;75792.50;5312368;26;97820;-73
2024/04/18 02:25:53;;;;;;;;;17.67;16.00;;;;;-143.90;100.00;75796.63;5301445;26;97858;-73
2024/04/18 02:28:20;;;;;;;;;20.33;19.00;;;;;-143.90;100.00;75802.81;5311330;26;98544;-73
2024/04/18 02:30:47;;;;;;;;;28.67;23.33;;;;;-143.90;100.00;75804.91;5308612;26;99857;-73
2024/04/18 02:33:15;;;;;;;;;30.00;25.33;;;;;-143.90;100.00;75809.03;5312498;26;98090;-73
2024/04/18 02:35:42;;;;;;;;;41.33;29.33;;;;;-143.90;100.00;75817.31;5316304;26;98426;-73
2024/04/18 02:38:09;;;;;;;;;47.00;40.00;;;;;-143.90;100.00;75825.56;5298838;26;99217;-73
2024/04/18 02:40:36;;;;;;;;;45.67;41.33;;;;;-143.90;100.00;75833.84;5313650;26;99747;-73
2024/04/18 02:43:03;;;;;;;;;45.33;37.00;;;;;-143.90;100.00;75835.91;5195125;26;98252;-73
2024/04/18 02:45:30;;;;;;;;;39.33;31.33;;;;;-143.90;100.00;75840.03;5296796;26;97957;-73
2024/04/18 02:47:57;;;;;;;;;36.00;30.67;;;;;-143.90;100.00;75846.25;5309516;26;98408;-73
2024/04/18 02:50:24;;;;;;;;;49.67;41.00;;;;;-143.90;100.00;75842.13;5311375;26;99727;-72
2024/04/18 02:52:51;;;;;;;;;43.33;32.00;;;;;-143.90;100.00;75846.25;5306426;26;98378;-73
2024/04/18 02:55:18;;;;;;;;;38.33;30.00;;;;;-143.90;100.00;75850.38;5300108;26;98168;-73
2024/04/18 02:57:45;;;;;;;;;35.00;23.67;;;;;-143.90;100.00;75854.53;5316160;26;97659;-73
2024/04/18 03:00:12;;;;;;;;;36.33;27.00;;;;;-143.90;100.00;75856.59;5145345;26;99507;-73
2024/04/18 03:02:39;;;;;;;;;27.00;22.67;;;;;-143.90;100.00;75860.72;5258792;26;100352;-73
2024/04/18 03:05:06;;;;;;;;;27.00;21.33;;;;;-143.90;100.00;75862.78;5254144;26;98757;-73
2024/04/18 03:07:32;;;;;;;;;24.00;23.00;;;;;-143.90;100.00;75864.84;5249161;26;98245;-74
2024/04/18 03:09:59;;;;;;;;;25.67;20.00;;;;;-143.90;100.00;75871.06;5225790;25;102522;-74
2024/04/18 03:12:26;;;;;;;;;24.33;20.00;;;;;-143.90;100.00;75873.13;5241648;26;99771;-73
2024/04/18 03:14:53;;;;;;;;;19.00;15.00;;;;;-143.90;100.00;75875.19;5223382;25;98615;-73
2024/04/18 03:17:20;;;;;;;;;24.00;13.00;;;;;-143.90;100.00;75883.47;5263339;26;98166;-72
2024/04/18 03:19:47;;;;;;;;;16.67;14.67;;;;;-143.90;100.00;75889.66;5233223;26;104474;-73
2024/04/18 03:22:14;;;;;;;;;47.00;31.00;;;;;-143.90;100.00;75902.06;5235336;26;98396;-73
2024/04/18 03:24:41;;;;;;;;;40.00;29.00;;;;;-143.90;100.00;75916.56;4828876;26;98037;-73
2024/04/18 03:27:07;;;;;;;;;35.00;31.33;;;;;-143.90;100.00;75926.88;5087010;26;98066;-73
2024/04/18 03:29:34;;;;;;;;;46.67;37.33;;;;;-143.90;100.00;75935.16;5199406;26;99837;-74
2024/04/18 03:32:03;;;;;;;;;53.67;45.00;;;;;-143.90;100.00;75939.28;5094126;26;98411;-73
2024/04/18 03:34:30;;;;;;;;;60.00;45.67;;;;;-143.90;100.00;75953.78;5027421;26;98506;-73
2024/04/18 03:36:57;;;;;;;;;54.33;40.33;;;;;-143.90;100.00;75962.03;5209644;26;98394;-73
2024/04/18 03:39:27;;;;;;;;;42.67;31.33;;;;;-143.90;100.00;75953.78;5048580;26;99775;-73
2024/04/18 03:41:54;;;;;;;;;33.33;22.33;;;;;-143.90;100.00;75953.78;5004639;26;98156;-72
2024/04/18 03:44:21;;;;;;;;;19.67;18.33;;;;;-143.90;100.00;75945.50;4865944;26;98298;-74
2024/04/18 03:46:48;;;;;;;;;24.00;18.67;;;;;-143.90;100.00;75947.56;4889429;26;99861;-73
2024/04/18 03:49:15;;;;;;;;;18.33;15.00;;;;;-143.90;100.00;75945.50;5303757;26;99781;-73
2024/04/18 03:51:42;;;;;;;;;26.67;20.33;;;;;-143.90;100.00;75941.38;4964709;26;98254;-73
2024/04/18 03:54:09;;;;;;;;;24.67;20.00;;;;;-143.90;100.00;75949.63;4972490;26;99488;-73
2024/04/18 03:56:35;;;;;;;;;25.67;23.67;;;;;-143.90;100.00;75941.38;5300278;26;97794;-73
2024/04/18 03:59:02;;;;;;;;;24.67;20.67;;;;;-143.90;100.00;75953.78;5210552;26;99771;-73
2024/04/18 04:01:29;;;;;;;;;26.33;23.33;;;;;-143.90;100.00;75945.50;5252628;26;98305;-73
2024/04/18 04:03:56;;;;;;;;;37.00;31.00;;;;;-143.90;100.00;75949.63;5300752;26;98223;-74
2024/04/18 04:06:23;;;;;;;;;38.00;28.33;;;;;-143.90;100.00;75945.50;5298117;26;98727;-73
2024/04/18 04:08:50;;;;;;;;;34.33;27.67;;;;;-143.90;100.00;75937.22;5296362;26;99270;-74
2024/04/18 04:11:18;;;;;;;;;17.00;11.67;;;;;-143.90;100.00;75939.28;5306766;26;97959;-73
2024/04/18 04:13:45;;;;;;;;;44.00;29.33;;;;;-143.90;100.00;75937.22;5310430;26;98320;-73
2024/04/18 04:16:12;;;;;;;;;43.00;34.00;;;;;-143.90;100.00;75937.22;5150248;26;97868;-73
2024/04/18 04:18:39;;;;;;;;;35.00;28.33;;;;;-143.90;100.00;75945.50;5308196;26;99836;-73
2024/04/18 04:21:07;;;;;;;;;37.33;29.67;;;;;-143.90;100.00;75943.44;5305270;26;99554;-74
2024/04/18 04:23:35;;;;;;;;;49.67;40.33;;;;;-143.90;100.00;75939.28;5302704;26;97815;-73
2024/04/18 04:26:02;;;;;;;;;41.33;32.67;;;;;-143.90;100.00;75941.38;5307967;26;98168;-73
2024/04/18 04:28:28;;;;;;;;;40.67;29.33;;;;;-143.90;100.00;75937.22;5304576;26;99743;-74
2024/04/18 04:30:55;;;;;;;;;28.67;23.67;;;;;-143.90;100.00;75933.09;5310493;26;97838;-73
2024/04/18 04:33:27;;;;;;;;;34.00;25.00;;;;;-143.90;100.00;75924.81;5311348;26;97943;-73
2024/04/18 04:35:54;;;;;;;;;30.00;25.33;;;;;-143.90;100.00;75920.69;5305223;26;98615;-73
2024/04/18 04:38:21;;;;;;;;;27.67;23.00;;;;;-143.90;100.00;75910.34;5306636;26;99726;-74
2024/04/18 04:40:48;;;;;;;;;35.67;31.33;;;;;-143.90;100.00;75914.47;5313658;26;98996;-73
2024/04/18 04:43:16;;;;;;;;;63.33;43.67;;;;;-143.90;100.00;75918.63;5064653;26;98088;-72
2024/04/18 04:45:43;;;;;;;;;45.67;38.67;;;;;-143.90;100.00;75916.56;5229504;26;98283;-73
2024/04/18 04:48:09;;;;;;;;;49.00;39.00;;;;;-143.90;100.00;75912.41;5302095;26;99894;-73
2024/04/18 04:50:40;;;;;;;;;52.67;41.33;;;;;-143.90;100.00;75912.41;5307408;26;98024;-73
2024/04/18 04:53:08;;;;;;;;;51.00;41.00;;;;;-143.90;100.00;75900.00;5299566;26;97757;-73
2024/04/18 04:55:34;;;;;;;;;41.67;36.33;;;;;-143.90;100.00;75897.94;5307257;26;99052;-73
2024/04/18 04:58:01;;;;;;;;;52.00;32.67;;;;;-143.90;100.00;75889.66;5311591;26;99729;-73
2024/04/18 05:00:28;;;;;;;;;31.33;25.67;;;;;-143.90;100.00;75885.53;5314827;26;98126;-73
2024/04/18 05:02:55;;;;;;;;;29.67;26.00;;;;;-143.90;100.00;75887.59;5306643;26;98250;-73
2024/04/18 05:05:22;;;;;;;;;32.33;27.00;;;;;-143.90;100.00;75879.34;5303526;26;98172;-73
2024/04/18 05:07:50;;;;;;;;;25.00;23.67;;;;;-143.90;100.00;75873.13;5254984;26;99851;-73
2024/04/18 05:10:20;;;;;;;;;43.00;31.00;;;;;-143.90;100.00;75877.25;5281896;26;98211;-73
2024/04/18 05:12:51;;;;;;;;;34.00;28.67;;;;;-143.90;100.00;75881.41;5307704;26;97717;-73
2024/04/18 05:15:18;;;;;;;;;30.67;26.33;;;;;-143.90;100.00;75858.66;5308591;26;97817;-74
2024/04/18 05:17:45;;;;;;;;;18.67;13.00;;;;;-143.90;100.00;75833.84;5302215;26;99755;-74
2024/04/18 05:20:12;;;;;;;;;45.33;34.67;;;;;-143.90;100.00;75798.69;5302024;26;98197;-74
2024/04/18 05:22:38;;;;;;;;;30.33;27.67;;;;;-143.90;100.00;75767.69;5309513;26;98008;-74
2024/04/18 05:25:05;;;;;;;;;30.33;26.67;;;;;-143.90;100.00;75736.66;5307965;26;97801;-74
2024/04/18 05:27:42;;;;;;;;;43.33;33.67;;;;;-143.90;100.00;75703.56;5303362;26;100062;-74
2024/04/18 05:32:54;;;;;;;;;22.67;16.33;;;;;-143.90;100.00;75664.28;5309414;26;98105;-74
2024/04/18 05:35:21;;;;;;;;;20.33;19.00;;;;;-143.90;100.00;75649.81;5310369;26;98157;-73
2024/04/18 05:37:48;;;;;;;;;18.33;17.33;;;;;-143.90;100.00;75639.47;5310871;26;99788;-74
2024/04/18 05:40:15;;;;;;;;;16.33;15.67;;;;;-143.90;100.00;75618.81;5308841;26;98080;-74
2024/04/18 05:42:42;;;;;;;;;21.67;17.67;;;;;-143.90;100.00;75606.41;5158042;26;97753;-73
2024/04/18 05:45:08;;;;;;;;;27.00;23.33;;;;;-143.90;100.00;75569.19;5256522;26;98274;-72
2024/04/18 05:47:35;;;;;;;;;41.67;31.67;;;;;-143.90;100.00;75546.44;5279551;26;100078;-72
2024/04/18 05:50:02;;;;;;;;;28.33;25.00;;;;;-143.90;100.00;75548.50;5282148;26;98182;-73
2024/04/18 05:52:29;;;;;;;;;30.33;26.33;;;;;-143.90;100.00;75548.50;5276428;26;98261;-74
2024/04/18 05:54:56;;;;;;;;;35.33;24.00;;;;;-143.90;100.00;75548.50;5282908;26;98496;-74
2024/04/18 05:57:22;;;;;;;;;18.67;12.33;;;;;-143.90;100.00;75546.44;5213214;26;99763;-74
2024/04/18 05:59:51;;;;;;;;;25.00;19.33;;;;;-143.90;100.00;75552.63;5209023;26;98477;-74
2024/04/18 06:02:18;;;;;;;;;20.33;19.00;;;;;-143.90;100.00;75538.16;5255238;26;98364;-72
2024/04/18 06:04:45;;;;;;;;;25.67;19.00;;;;;-143.90;100.00;75536.09;5282726;26;97826;-74
2024/04/18 06:07:12;;;;;;;;;24.67;18.33;;;;;-143.90;100.00;75517.50;5150718;26;99749;-74
2024/04/18 06:09:38;;;;;;;;;39.00;29.00;;;;;-143.90;100.00;75519.56;4858821;26;98507;-75
2024/04/18 06:12:06;;;;;;;;;23.67;22.00;;;;;-143.90;100.00;75500.94;5266633;26;97822;-75
2024/04/18 06:14:32;;;;;;;;;22.75;19.00;;;;;-143.90;100.00;75494.75;5121730;26;98397;-74
2024/04/18 06:16:59;;;;;;;;;33.00;27.33;;;;;-143.90;100.00;75478.22;5007556;26;99774;-75
2024/04/18 06:19:26;;;;;;;;;31.33;25.67;;;;;-143.90;100.00;75480.28;5200905;26;99156;-75
2024/04/18 06:21:55;;;;;;;;;22.00;21.00;;;;;-143.90;100.00;75469.94;5198851;26;101552;-74
2024/04/18 06:24:22;;;;;;;;;22.75;16.75;;;;;-143.90;100.00;75453.41;5122991;26;97951;-73
2024/04/18 06:26:49;;;;;;;;;27.25;23.00;;;;;-143.90;100.00;75434.78;4860320;26;99687;-72
2024/04/18 06:29:15;;;;;;;;;23.50;20.50;;;;;-143.90;100.00;75418.25;4986282;26;97955;-74
2024/04/18 06:31:42;;;;;;;;;19.50;16.25;;;;;-143.90;100.00;75401.72;5110391;26;97834;-73
2024/04/18 06:34:09;;;;;;;;;20.25;17.00;;;;;-143.90;100.00;75368.63;5153208;26;98570;-73
2024/04/18 06:36:36;;;;;;;;;23.50;20.25;;;;;-143.90;100.00;75341.75;5303431;26;99734;-73
2024/04/18 06:39:02;;;;;;;;;30.00;28.00;;;;;-143.90;100.00;75333.47;5307911;26;98056;-74
2024/04/18 06:41:29;;;;;;;;;34.00;25.00;;;;;-143.90;100.00;75314.88;5294175;26;97937;-73
2024/04/18 06:43:57;;;;;;;;;37.50;31.50;;;;;-143.90;100.00;75319.00;5230606;26;98496;-72
2024/04/18 06:46:24;;;;;;;;;47.33;33.67;;;;;-143.90;100.00;75325.22;5280375;26;99851;-73
2024/04/18 06:48:51;;;;;;;;;43.33;33.67;;;;;-143.90;100.00;75319.00;5283711;26;99539;-73
2024/04/18 06:51:17;;;;;;;;;39.00;30.00;;;;;-143.90;100.00;75300.41;5260813;26;105220;-73
2024/04/18 06:53:44;;;;;;;;;27.33;24.00;;;;;-143.90;100.00;75290.06;5276743;26;97904;-73
2024/04/18 06:56:11;;;;;;;;;35.33;30.33;;;;;-143.90;100.00;75281.78;5272454;26;99946;-73
2024/04/18 06:58:38;;;;;;;;;35.67;27.67;;;;;-143.90;100.00;75277.66;5281119;26;98544;-73
2024/04/18 07:01:05;;;;;;;;;43.67;38.33;;;;;-143.90;100.00;75279.72;5275514;26;97738;-72
2024/04/18 07:03:32;;;;;;;;;44.00;38.00;;;;;-143.90;100.00;75281.78;5286166;26;98561;-73
2024/04/18 07:05:59;;;;;;;;;33.50;31.00;;;;;-143.90;100.00;75283.84;5283776;26;103860;-73
2024/04/18 07:08:25;;;;;;;;;30.75;25.25;;;;;-143.90;100.00;75300.41;5289631;26;97912;-73
2024/04/18 07:10:53;;;;;;;;;39.00;34.25;;;;;-143.90;100.00;75306.59;5279785;26;98253;-73
2024/04/18 07:13:20;;;;;;;;;33.25;31.25;;;;;-143.90;100.00;75306.59;5277344;26;98538;-73
2024/04/18 07:15:47;;;;;;;;;27.25;24.00;;;;;-143.90;100.00;75306.59;5282450;26;99746;-72
2024/04/18 07:18:14;;;;;;;;;40.67;33.00;;;;;-143.90;100.00;75316.94;5278079;26;98799;-74
2024/04/18 07:20:41;;;;;;;;;29.75;27.75;;;;;-143.90;100.00;75321.06;5282175;26;97872;-74
2024/04/18 07:23:08;;;;;;;;;40.00;31.50;;;;;-143.90;100.00;75319.00;5274686;26;98092;-74
2024/04/18 07:25:37;;;;;;;;;48.75;38.25;;;;;-143.90;100.00;75325.22;5287558;26;99598;-72
2024/04/18 07:28:04;;;;;;;;;35.00;29.75;;;;;-143.90;100.00;75321.06;5285632;25;97931;-74
2024/04/18 07:30:31;;;;;;;;;41.00;35.50;;;;;-143.90;100.00;75312.81;5287372;26;97920;-74
2024/04/18 07:32:58;;;;;;;;;27.00;21.25;;;;;-143.90;100.00;75302.47;5286016;26;97927;-74
2024/04/18 07:35:25;;;;;;;;;30.25;26.25;;;;;-143.90;100.00;75275.59;5276137;26;100120;-74
2024/04/18 07:37:52;;;;;;;;;32.00;28.00;;;;;-143.90;100.00;75259.06;5284058;26;98200;-72
2024/04/18 07:40:21;;;;;;;;;30.25;25.25;;;;;-143.90;100.00;75238.38;5286164;26;101111;-72
2024/04/18 07:42:51;;;;;;;;;30.25;28.50;;;;;-143.90;100.00;75213.56;5290411;26;97894;-73
2024/04/18 07:45:18;;;;;;;;;38.50;31.75;;;;;-143.90;100.00;75205.28;5272233;26;100033;-73
2024/04/18 07:47:45;;;;;;;;;40.00;31.75;;;;;-143.90;100.00;75176.34;5276349;26;99148;-73
2024/04/18 07:50:12;;;;;;;;;41.25;32.25;;;;;-143.90;100.00;75153.63;5285279;26;97925;-73
2024/04/18 07:52:39;;;;;;;;;30.00;25.50;;;;;-143.90;100.00;75135.00;5288914;26;98357;-73
2024/04/18 07:55:14;;;;;;;;;40.00;30.50;;;;;-143.90;100.00;75106.06;5270966;26;99887;-73
2024/04/18 07:57:42;;;;;;;;;42.00;35.25;;;;;-143.90;100.00;75089.53;5281811;26;98110;-73
2024/04/18 08:00:10;;;;;;;;;37.25;32.25;;;;;-143.90;100.00;75068.84;5285984;26;99493;-73
2024/04/18 08:02:38;;;;;;;;;44.67;38.67;;;;;-143.90;100.00;75054.38;5288736;26;97866;-73
2024/04/18 08:05:07;;;;;;;;;33.25;32.00;;;;;-143.90;100.00;75044.03;5276347;26;99806;-73
2024/04/18 08:07:38;;;;;;;;;37.00;32.50;;;;;-143.90;100.00;75002.69;5283350;26;98350;-73
2024/04/18 08:10:08;;;;;;;;;35.00;33.25;;;;;-143.90;100.00;74969.63;5277931;26;97707;-73
2024/04/18 08:12:41;;;;;;;;;51.00;42.33;;;;;-143.90;100.00;74957.22;5286062;26;98294;-73
2024/04/18 08:15:13;;;;;;;;;38.25;34.75;;;;;-143.90;100.00;74926.22;5274468;26;99732;-72
2024/04/18 08:17:46;;;;;;;;;42.75;36.00;;;;;-143.90;100.00;74920.00;5282133;26;98072;-73
2024/04/18 08:20:13;;;;;;;;;36.25;29.50;;;;;-143.90;100.00;74909.66;5279608;26;97971;-73
2024/04/18 08:22:40;;;;;;;;;32.25;27.00;;;;;-143.90;100.00;74899.34;5279883;25;98096;-72
2024/04/18 08:25:07;;;;;;;;;31.50;26.25;;;;;-143.90;100.00;74878.66;5276866;26;99730;-73
2024/04/18 08:27:35;;;;;;;;;26.25;25.75;;;;;-143.90;100.00;74866.25;5287489;26;97820;-73
2024/04/18 08:30:02;;;;;;;;;41.00;37.25;;;;;-143.90;100.00;74851.78;5278106;26;98641;-73
2024/04/18 08:32:29;;;;;;;;;45.00;36.25;;;;;-143.90;97.13;74839.38;5285737;26;98024;-73
2024/04/18 08:34:56;;;;;;;;;39.00;34.25;;;;;-143.90;95.43;74829.03;5285047;26;99878;-73
2024/04/18 08:37:23;;;;;;;;;39.50;35.25;;;;;-143.90;91.08;74829.03;4542238;26;10000655;-73
2024/04/18 08:39:49;;;;;;;;;26.25;26.25;;;;;-143.90;94.96;74810.44;5323350;25;98123;-73
2024/04/18 08:42:25;;;;;;;;;29.00;22.75;;;;;-143.90;95.10;74787.69;5314744;25;99142;-73
2024/04/18 08:44:56;;;;;;;;;48.00;39.00;;;;;-143.90;90.15;74791.84;5320861;26;99181;-73
2024/04/18 08:47:24;;;;;;;;;42.00;37.50;;;;;-143.90;90.67;74798.03;5310540;25;98318;-73
2024/04/18 08:49:54;;;;;;;;;34.00;30.50;;;;;-143.90;91.84;74795.97;5318242;25;99716;-73
2024/04/18 08:52:21;;;;;;;;;39.75;33.25;;;;;-143.90;89.92;74812.50;5288706;26;98149;-73
2024/04/18 08:54:48;;;;;;;;;40.25;32.00;;;;;-143.90;86.69;74804.25;5313929;25;98063;-72
2024/04/18 08:57:24;;;;;;;;;32.00;27.00;;;;;-143.90;89.68;74783.56;5141305;26;10002352;-73
2024/04/18 09:00:01;;;;;;;;;25.50;22.25;;;;;-143.90;84.52;74771.16;4947674;26;10088386;-73
2024/04/18 09:02:29;;;;;;;;;20.00;17.75;;;;;-143.90;86.88;74750.50;5315402;25;97770;-73
2024/04/18 09:04:58;;;;;;;;;34.50;26.75;;;;;-143.90;76.45;74758.75;5318471;25;99450;-73
2024/04/18 09:07:24;;;;;;;;;24.00;21.25;;;;;-143.90;81.67;74733.97;5308558;25;99843;-72
2024/04/18 09:10:10;;;;;;;;;17.00;16.00;;;;;-143.90;78.73;74725.69;5318818;25;99723;-72
2024/04/18 09:12:37;;;;;;;;;15.75;14.50;;;;;-143.90;70.51;74725.69;5318345;26;98608;-72
2024/04/18 09:15:04;;;;;;;;;17.00;15.25;;;;;-143.90;72.24;74692.63;5292405;26;97881;-72
2024/04/18 09:17:31;;;;;;;;;9.00;9.00;;;;;-143.90;72.57;74626.47;5319845;25;97971;-72
2024/04/18 09:19:58;;;;;;;;;11.50;11.50;;;;;-143.90;72.40;74564.44;5313435;25;100067;-73
2024/04/18 09:22:25;;;;;;;;;20.50;17.00;;;;;-143.90;64.14;74570.66;5314390;26;100142;-73
2024/04/18 09:24:52;;;;;;;;;21.00;19.50;;;;;-143.90;58.93;74616.13;5309822;25;98744;-72
2024/04/18 09:27:19;;;;;;;;;15.00;14.25;;;;;-143.90;65.42;74634.72;5309021;25;98536;-73
2024/04/18 09:29:46;;;;;;;;;11.25;10.00;;;;;-143.90;66.24;74667.81;5316841;25;100077;-73
2024/04/18 09:32:14;;;;;;;;;17.75;14.00;;;;;-143.90;69.24;74709.16;5316752;26;98464;-73
2024/04/18 09:34:43;;;;;;;;;12.25;11.75;;;;;-143.90;70.15;74740.16;5319277;26;98682;-73
2024/04/18 09:37:14;;;;;;;;;11.00;10.00;;;;;-143.90;71.12;74781.50;5303790;26;98540;-74
2024/04/18 09:39:44;;;;;;;;;13.50;13.50;;;;;-143.90;65.60;74826.97;5311183;25;99745;-73
2024/04/18 09:42:36;;;;;;;;;13.00;11.00;;;;;-143.90;65.25;74880.72;5317615;25;98490;-72
2024/04/18 09:45:05;;;;;;;;;21.25;17.50;;;;;-143.90;70.06;74905.53;5312398;25;97959;-72
2024/04/18 09:47:38;;;;;;;;;14.50;11.00;;;;;-143.90;72.21;74924.13;5315177;25;98385;-71
2024/04/18 09:50:06;;;;;;;;;11.50;9.75;;;;;-143.90;74.01;74926.22;5319327;25;104439;-72
2024/04/18 09:52:36;;;;;;;;;13.25;10.00;;;;;-143.90;75.06;74936.53;5314529;25;98174;-72
2024/04/18 09:55:05;;;;;;;;;11.25;10.50;;;;;-143.90;76.36;74944.81;5311660;25;97902;-73
2024/04/18 09:57:33;;;;;;;;;14.00;10.25;;;;;-143.90;77.65;74957.22;5311340;25;98380;-72
2024/04/18 10:00:01;;;;;;;;;9.00;9.00;;;;;-143.90;78.69;74948.94;5317608;25;104573;-74
2024/04/18 10:02:29;;;;;;;;;15.50;14.50;;;;;-143.90;81.38;74946.88;5316977;25;97919;-74
2024/04/18 10:04:56;;;;;;;;;14.00;11.00;;;;;-143.90;80.94;74938.59;5321153;25;98442;-73
2024/04/18 10:07:25;;;;;;;;;16.25;15.25;;;;;-143.90;82.74;74911.72;5308091;25;98396;-73
2024/04/18 10:09:54;;;;;;;;;19.00;15.25;;;;;-143.90;83.38;74899.34;5320552;25;99744;-72
2024/04/18 10:12:28;;;;;;;;;19.50;17.75;;;;;-143.90;83.27;74870.38;5320886;25;97842;-73
2024/04/18 10:14:56;;;;;;;;;13.00;13.00;;;;;-143.90;83.65;74831.13;5320591;25;98484;-73
2024/04/18 10:17:24;;;;;;;;;14.25;11.25;;;;;-143.90;81.46;74795.97;5304316;25;98432;-72
2024/04/18 10:19:53;;;;;;;;;13.25;12.75;;;;;-143.90;77.28;74771.16;5311381;25;99804;-73
2024/04/18 10:22:22;;;;;;;;;10.25;9.50;;;;;-143.90;74.99;74754.63;5319364;25;98455;-73
2024/04/18 10:25:18;;;;;;;;;12.50;10.00;;;;;-143.90;75.83;74729.81;5314614;25;98233;-72
2024/04/18 10:27:45;;;;;;;;;9.75;7.25;;;;;-143.90;73.71;74729.81;5317194;25;104782;-73
2024/04/18 10:30:18;;;;;;;;;7.50;6.50;;;;;-143.90;73.51;74733.97;5321090;26;99827;-72
2024/04/18 10:32:47;;;;;;;;;4.50;4.50;;;;;-143.90;71.82;74746.34;5317687;25;98075;-73
2024/04/18 10:35:16;;;;;;;;;6.50;4.00;;;;;-143.90;73.39;74750.50;5306955;25;98439;-72
2024/04/18 10:37:50;;;;;;;;;8.50;7.50;;;;;-143.90;74.52;74769.09;5318610;25;100667;-72
2024/04/18 10:40:17;;;;;;;;;6.50;6.00;;;;;-143.90;75.34;74769.09;5320829;25;100062;-72
2024/04/18 10:42:44;;;;;;;;;4.00;4.00;;;;;-143.90;75.89;74762.91;5314652;25;97751;-72
2024/04/18 10:45:11;;;;;;;;;8.25;7.00;;;;;-143.90;76.01;74767.03;5314733;25;97884;-73
2024/04/18 10:47:39;;;;;;;;;6.75;6.25;;;;;-143.90;76.19;74750.50;5321477;26;98029;-72
2024/04/18 10:50:07;;;;;;;;;10.50;9.25;;;;;-143.90;74.82;74711.22;5316620;25;99911;-71
2024/04/18 10:52:33;;;;;;;;;17.50;15.50;;;;;-143.90;72.12;74682.28;5320358;25;98253;-73
2024/04/18 10:55:00;;;;;;;;;16.25;15.50;;;;;-143.90;71.79;74645.06;5318020;25;98711;-73
2024/04/18 10:57:27;;;;;;;;;16.25;16.25;;;;;-143.90;71.54;74630.59;5316680;26;97941;-72
2024/04/18 10:59:54;;;;;;;;;15.00;10.50;;;;;-143.90;71.45;74647.13;5320520;25;99750;-73
2024/04/18 11:02:21;;;;;;;;;12.25;12.00;;;;;-143.90;72.08;74671.94;5320135;25;98313;-73